createdAt,value
2022-11-21T00:02:17.159Z,100279.19
2022-11-21T00:04:43.467Z,100280.31
2022-11-21T00:07:09.815Z,100279.22
2022-11-21T00:09:36.147Z,100278.44
2022-11-21T00:12:02.430Z,100277.19
2022-11-21T00:14:30.053Z,100270.25
2022-11-21T00:16:57.607Z,100266.94
2022-11-21T00:19:24.047Z,100273.34
2022-11-21T00:21:50.336Z,100264.59
2022-11-21T00:24:16.622Z,100270.00
2022-11-21T00:26:42.972Z,100264.03
2022-11-21T00:29:09.404Z,100261.53
2022-11-21T00:31:36.984Z,100258.06
2022-11-21T00:34:03.287Z,100260.34
2022-11-21T00:36:29.598Z,100251.88
2022-11-21T00:38:55.900Z,100257.28
2022-11-21T00:41:22.183Z,100253.94
2022-11-21T00:43:48.484Z,100256.47
2022-11-21T00:46:14.800Z,100249.94
2022-11-21T00:48:42.425Z,100260.94
2022-11-21T00:51:08.766Z,100270.81
2022-11-21T00:53:35.078Z,100274.84
2022-11-21T00:56:01.367Z,100276.22
2022-11-21T00:58:27.675Z,100270.41
2022-11-21T01:01:01.990Z,100258.47
2022-11-21T01:03:28.298Z,100247.94
2022-11-21T01:05:59.691Z,100262.50
2022-11-21T01:08:25.990Z,100265.44
2022-11-21T01:10:52.265Z,100267.38
2022-11-21T01:13:18.577Z,100257.09
2022-11-21T01:15:44.852Z,100259.19
2022-11-21T01:18:11.138Z,100254.75
2022-11-21T01:20:38.933Z,100256.53
2022-11-21T01:23:06.586Z,100258.66
2022-11-21T01:25:33.327Z,100258.91
2022-11-21T01:27:59.633Z,100263.50
2022-11-21T01:30:25.941Z,100260.13
2022-11-21T01:32:52.228Z,100260.13
2022-11-21T01:35:18.591Z,100261.41
2022-11-21T01:37:46.385Z,100271.50
2022-11-21T01:40:14.309Z,100274.59
2022-11-21T01:42:44.258Z,100278.59
2022-11-21T01:45:25.475Z,100276.78
2022-11-21T01:47:51.788Z,100267.78
2022-11-21T01:50:18.254Z,100265.13
2022-11-21T01:52:44.641Z,100261.25
2022-11-21T01:55:11.303Z,100265.69
2022-11-21T01:57:40.910Z,100264.56
2022-11-21T02:00:09.574Z,100269.59
2022-11-21T02:02:36.997Z,100259.88
2022-11-21T02:05:04.778Z,100257.94
2022-11-21T02:07:35.189Z,100270.28
2022-11-21T02:10:02.989Z,100255.44
2022-11-21T02:12:31.533Z,100254.47
2022-11-21T02:14:59.305Z,100258.06
2022-11-21T02:17:26.207Z,100260.44
2022-11-21T02:19:54.081Z,100274.59
2022-11-21T02:22:24.491Z,100264.03
2022-11-21T02:24:58.454Z,100269.97
2022-11-21T02:27:24.811Z,100266.25
2022-11-21T02:29:51.122Z,100265.97
2022-11-21T02:32:20.646Z,100272.06
2022-11-21T02:34:46.932Z,100268.34
2022-11-21T02:37:13.205Z,100267.50
2022-11-21T02:39:39.957Z,100260.56
2022-11-21T02:42:09.927Z,100268.34
2022-11-21T02:44:40.050Z,100265.13
2022-11-21T02:47:06.354Z,100272.78
2022-11-21T02:49:37.912Z,100273.19
2022-11-21T02:52:04.391Z,100283.16
2022-11-21T02:54:30.749Z,100288.72
2022-11-21T02:56:57.080Z,100289.81
2022-11-21T02:59:24.728Z,100294.66
2022-11-21T03:01:51.007Z,100288.59
2022-11-21T03:04:17.308Z,100287.19
2022-11-21T03:06:43.573Z,100283.97
2022-11-21T03:09:09.817Z,100279.69
2022-11-21T03:11:36.113Z,100276.09
2022-11-21T03:14:02.395Z,100275.94
2022-11-21T03:16:30.011Z,100268.19
2022-11-21T03:18:56.282Z,100269.28
2022-11-21T03:21:22.581Z,100265.97
2022-11-21T03:23:48.875Z,100270.81
2022-11-21T03:26:15.187Z,100273.56
2022-11-21T03:28:41.474Z,100284.69
2022-11-21T03:31:07.783Z,100283.72
2022-11-21T03:33:35.436Z,100282.31
2022-11-21T03:36:01.787Z,100274.41
2022-11-21T03:38:28.094Z,100281.22
2022-11-21T03:40:54.392Z,100274.16
2022-11-21T03:43:20.711Z,100267.22
2022-11-21T03:45:47.225Z,100265.41
2022-11-21T03:48:13.547Z,100272.03
2022-11-21T03:50:43.425Z,100267.91
2022-11-21T03:53:09.797Z,100277.59
2022-11-21T03:55:36.065Z,100266.25
2022-11-21T03:58:02.338Z,100265.28
2022-11-21T04:00:28.679Z,100265.94
2022-11-21T04:02:54.957Z,100263.31
2022-11-21T04:05:21.262Z,100260.53
2022-11-21T04:07:48.879Z,100264.84
2022-11-21T04:10:15.383Z,100264.84
2022-11-21T04:12:41.670Z,100276.22
2022-11-21T04:15:13.222Z,100276.06
2022-11-21T04:17:40.090Z,100264.13
2022-11-21T04:20:06.769Z,100262.22
2022-11-21T04:22:33.050Z,100260.97
2022-11-21T04:25:00.634Z,100266.25
2022-11-21T04:27:26.999Z,100276.78
2022-11-21T04:29:53.310Z,100281.09
2022-11-21T04:32:19.616Z,100274.16
2022-11-21T04:34:45.902Z,100273.19
2022-11-21T04:37:12.205Z,100273.19
2022-11-21T04:39:38.588Z,100274.00
2022-11-21T04:42:06.270Z,100265.97
2022-11-21T04:44:32.634Z,100262.38
2022-11-21T04:47:03.766Z,100256.09
2022-11-21T04:49:31.518Z,100255.84
2022-11-21T04:51:57.805Z,100260.00
2022-11-21T04:54:24.094Z,100247.66
2022-11-21T04:56:50.408Z,100241.31
2022-11-21T04:59:18.051Z,100240.47
2022-11-21T05:01:44.390Z,100243.81
2022-11-21T05:04:10.678Z,100240.16
2022-11-21T05:06:36.971Z,100239.34
2022-11-21T05:09:03.300Z,100251.00
2022-11-21T05:11:29.597Z,100237.84
2022-11-21T05:13:55.912Z,100228.97
2022-11-21T05:16:23.547Z,100229.63
2022-11-21T05:18:49.847Z,100221.88
2022-11-21T05:21:16.136Z,100220.09
2022-11-21T05:23:42.410Z,100216.63
2022-11-21T05:26:08.708Z,100218.56
2022-11-21T05:28:34.986Z,100214.25
2022-11-21T05:31:01.290Z,100211.75
2022-11-21T05:33:28.903Z,100210.78
2022-11-21T05:35:55.208Z,100211.75
2022-11-21T05:38:21.519Z,100204.13
2022-11-21T05:40:47.827Z,100208.69
2022-11-21T05:43:14.157Z,100211.31
2022-11-21T05:45:40.476Z,100214.13
2022-11-21T05:48:06.746Z,100205.66
2022-11-21T05:50:34.835Z,100207.59
2022-11-21T05:53:01.521Z,100204.13
2022-11-21T05:55:27.877Z,100205.22
2022-11-21T05:57:54.178Z,100203.56
2022-11-21T06:00:20.570Z,100198.47
2022-11-21T06:02:47.750Z,100199.44
2022-11-21T06:05:14.057Z,100195.81
2022-11-21T06:07:41.740Z,100193.31
2022-11-21T06:10:08.375Z,100195.00
2022-11-21T06:12:34.672Z,100197.75
2022-11-21T06:15:00.946Z,100192.50
2022-11-21T06:17:27.254Z,100190.69
2022-11-21T06:19:53.527Z,100200.25
2022-11-21T06:22:19.791Z,100197.47
2022-11-21T06:24:47.414Z,100199.00
2022-11-21T06:27:13.702Z,100191.66
2022-11-21T06:29:39.952Z,100193.31
2022-11-21T06:32:06.248Z,100196.50
2022-11-21T06:34:32.553Z,100187.22
2022-11-21T06:36:58.866Z,100193.03
2022-11-21T06:39:25.141Z,100187.34
2022-11-21T06:41:52.741Z,100182.75
2022-11-21T06:44:19.313Z,100181.78
2022-11-21T06:46:50.674Z,100176.38
2022-11-21T06:49:17.449Z,100174.13
2022-11-21T06:51:43.734Z,100172.47
2022-11-21T06:54:15.073Z,100174.84
2022-11-21T06:56:43.032Z,100179.13
2022-11-21T06:59:10.711Z,100181.63
2022-11-21T07:01:37.121Z,100179.00
2022-11-21T07:04:03.641Z,100172.91
2022-11-21T07:06:29.951Z,100175.41
2022-11-21T07:09:25.263Z,100172.19
2022-11-21T07:11:42.796Z,100166.66
2022-11-21T07:14:09.599Z,100172.63
2022-11-21T07:16:37.589Z,100165.69
2022-11-21T07:19:03.883Z,100178.03
2022-11-21T07:21:30.159Z,100165.69
2022-11-21T07:23:56.471Z,100154.44
2022-11-21T07:26:22.739Z,100157.91
2022-11-21T07:28:49.028Z,100163.31
2022-11-21T07:31:15.362Z,100161.66
2022-11-21T07:33:43.158Z,100158.75
2022-11-21T07:36:09.653Z,100157.78
2022-11-21T07:38:35.937Z,100154.19
2022-11-21T07:41:02.249Z,100153.88
2022-11-21T07:43:28.535Z,100153.88
2022-11-21T07:45:55.780Z,100157.19
2022-11-21T07:48:22.103Z,100154.56
2022-11-21T07:50:49.748Z,100152.78
2022-11-21T07:53:16.028Z,100155.41
2022-11-21T07:55:42.314Z,100155.28
2022-11-21T07:58:09.811Z,100159.59
2022-11-21T08:00:37.022Z,100150.00
2022-11-21T08:03:03.692Z,100156.94
2022-11-21T08:05:30.028Z,100158.63
2022-11-21T08:07:57.672Z,100149.72
2022-11-21T08:10:24.009Z,100150.84
2022-11-21T08:12:50.346Z,100149.72
2022-11-21T08:15:16.759Z,100146.13
2022-11-21T08:17:43.095Z,100138.09
2022-11-21T08:20:09.862Z,100133.63
2022-11-21T08:22:38.080Z,100131.66
2022-11-21T08:25:06.606Z,100127.78
2022-11-21T08:27:33.001Z,100124.31
2022-11-21T08:29:59.281Z,100120.56
2022-11-21T08:32:25.647Z,100111.69
2022-11-21T08:34:51.954Z,100125.56
2022-11-21T08:37:18.244Z,100109.97
2022-11-21T08:39:44.549Z,100099.28
2022-11-21T08:42:12.188Z,100094.69
2022-11-21T08:44:38.508Z,100089.94
2022-11-21T08:47:04.857Z,100083.84
2022-11-21T08:49:31.129Z,100080.91
2022-11-21T08:51:57.406Z,100086.06
2022-11-21T08:54:24.204Z,100080.78
2022-11-21T08:56:50.963Z,100091.31
2022-11-21T08:59:18.651Z,100095.47
2022-11-21T09:01:45.033Z,100089.91
2022-11-21T09:04:11.533Z,100090.06
2022-11-21T09:06:38.132Z,100092.53
2022-11-21T09:09:04.875Z,100083.22
2022-11-21T09:11:31.178Z,100083.50
2022-11-21T09:13:58.759Z,100080.88
2022-11-21T09:16:26.395Z,100078.78
2022-11-21T09:18:52.707Z,100078.31
2022-11-21T09:21:19.896Z,100066.63
2022-11-21T09:23:46.972Z,100070.78
2022-11-21T09:26:13.515Z,100069.53
2022-11-21T09:28:40.595Z,100070.88
2022-11-21T09:31:07.208Z,100074.34
2022-11-21T09:33:35.634Z,100072.41
2022-11-21T09:36:01.947Z,100069.47
2022-11-21T09:38:28.228Z,100064.56
2022-11-21T09:40:58.564Z,100057.03
2022-11-21T09:43:40.036Z,100059.19
2022-11-21T09:46:10.060Z,100057.78
2022-11-21T09:48:43.368Z,100056.50
2022-11-21T09:51:12.024Z,100044.50
2022-11-21T09:53:53.011Z,100048.19
2022-11-21T09:56:20.502Z,100041.78
2022-11-21T09:58:49.146Z,100037.84
2022-11-21T10:01:16.329Z,100032.09
2022-11-21T10:03:45.271Z,100030.97
2022-11-21T10:06:16.829Z,100024.41
2022-11-21T10:08:48.069Z,100022.13
2022-11-21T10:11:20.103Z,100015.56
2022-11-21T10:13:54.458Z,100012.75
2022-11-21T10:16:25.971Z,100012.28
2022-11-21T10:19:11.826Z,100003.06
2022-11-21T10:21:55.244Z,100008.72
2022-11-21T10:24:38.816Z,100007.94
2022-11-21T10:27:07.715Z,100001.38
2022-11-21T10:29:36.192Z,100001.56
2022-11-21T10:32:04.588Z,99994.81
2022-11-21T10:34:35.530Z,99992.06
2022-11-21T10:37:11.662Z,99987.63
2022-11-21T10:39:41.163Z,99981.84
2022-11-21T10:42:12.537Z,99972.09
2022-11-21T10:44:38.802Z,99969.16
2022-11-21T10:47:12.635Z,99974.13
2022-11-21T10:49:40.439Z,99975.78
2022-11-21T10:52:10.987Z,99965.06
2022-11-21T10:55:01.804Z,99966.53
2022-11-21T10:57:28.805Z,99967.03
2022-11-21T10:59:57.422Z,99957.47
2022-11-21T11:02:24.848Z,99958.16
2022-11-21T11:05:16.631Z,99953.06
2022-11-21T11:07:43.460Z,99944.97
2022-11-21T11:10:15.159Z,99936.50
2022-11-21T11:12:41.869Z,99943.19
2022-11-21T11:15:16.338Z,99928.78
2022-11-21T11:17:42.646Z,99921.69
2022-11-21T11:20:30.712Z,99909.44
2022-11-21T11:22:57.029Z,99911.41
2022-11-21T11:25:23.402Z,99917.53
2022-11-21T11:27:49.706Z,99912.56
2022-11-21T11:30:16.889Z,99910.88
2022-11-21T11:32:43.398Z,99904.44
2022-11-21T11:35:22.119Z,99895.84
2022-11-21T11:37:53.275Z,99889.56
2022-11-21T11:40:24.059Z,99884.25
2022-11-21T11:43:08.979Z,99883.13
2022-11-21T11:45:49.040Z,99873.38
2022-11-21T11:48:16.484Z,99865.44
2022-11-21T11:50:46.107Z,99863.94
2022-11-21T11:53:15.914Z,99852.00
2022-11-21T11:55:44.917Z,99849.53
2022-11-21T11:58:18.246Z,99840.59
2022-11-21T12:00:47.461Z,99839.63
2022-11-21T12:03:16.615Z,99835.16
2022-11-21T12:05:51.326Z,99825.72
2022-11-21T12:11:13.632Z,99825.88
2022-11-21T12:13:41.331Z,99818.28
2022-11-21T12:16:13.754Z,99807.22
2022-11-21T12:18:47.559Z,99809.03
2022-11-21T12:21:14.859Z,99801.41
2022-11-21T12:23:45.495Z,99792.50
2022-11-21T12:26:23.774Z,99789.00
2022-11-21T12:28:54.871Z,99782.25
2022-11-21T12:31:23.552Z,99778.94
2022-11-21T12:33:55.350Z,99768.69
2022-11-21T12:36:27.895Z,99768.03
2022-11-21T12:39:18.162Z,99759.44
2022-11-21T12:41:49.170Z,99754.13
2022-11-21T12:44:21.597Z,99744.91
2022-11-21T12:46:52.958Z,99739.09
2022-11-21T12:49:23.551Z,99732.81
2022-11-21T12:52:00.384Z,99729.84
2022-11-21T12:54:50.523Z,99724.25
2022-11-21T12:57:19.113Z,99716.47
2022-11-21T12:59:52.275Z,99704.75
2022-11-21T13:02:32.961Z,99707.53
2022-11-21T13:05:00.612Z,99709.84
2022-11-21T13:07:28.074Z,99709.19
2022-11-21T13:09:56.223Z,99712.00
2022-11-21T13:12:29.953Z,99711.19
2022-11-21T13:15:02.055Z,99701.59
2022-11-21T13:17:36.063Z,99690.69
2022-11-21T13:20:05.351Z,99676.81
2022-11-21T13:22:50.382Z,99661.59
2022-11-21T13:25:31.575Z,99652.03
2022-11-21T13:28:23.279Z,99632.38
2022-11-21T13:30:50.264Z,99642.78
2022-11-21T13:33:31.446Z,99637.00
2022-11-21T13:35:57.855Z,99633.38
2022-11-21T13:38:24.317Z,99629.25
2022-11-21T13:40:50.708Z,99619.81
2022-11-21T13:43:33.128Z,99618.66
2022-11-21T13:46:00.616Z,99613.88
2022-11-21T13:48:41.103Z,99603.00
2022-11-21T13:51:37.384Z,99606.13
2022-11-21T13:54:21.356Z,99596.72
2022-11-21T13:56:59.367Z,99594.06
2022-11-21T13:59:34.875Z,99583.66
2022-11-21T14:02:17.359Z,99584.31
2022-11-21T14:04:56.074Z,99576.72
2022-11-21T14:07:23.732Z,99574.09
2022-11-21T14:09:51.083Z,99575.22
2022-11-21T14:12:21.163Z,99571.75
2022-11-21T14:14:51.169Z,99571.13
2022-11-21T14:17:27.792Z,99566.66
2022-11-21T14:19:55.972Z,99551.16
2022-11-21T14:22:30.487Z,99542.22
2022-11-21T14:24:59.874Z,99529.19
2022-11-21T14:27:28.331Z,99525.22
2022-11-21T14:29:56.431Z,99524.22
2022-11-21T14:32:26.492Z,99524.38
2022-11-21T14:34:52.834Z,99534.78
2022-11-21T14:37:19.126Z,99532.31
2022-11-21T14:39:47.241Z,99530.34
2022-11-21T14:42:16.311Z,99517.28
2022-11-21T14:44:42.845Z,99507.38
2022-11-21T14:47:17.238Z,99496.81
2022-11-21T14:49:51.001Z,99490.69
2022-11-21T14:52:19.021Z,99490.53
2022-11-21T14:55:22.336Z,99482.94
2022-11-21T14:57:40.363Z,99475.16
2022-11-21T15:00:07.233Z,99471.88
2022-11-21T15:02:34.914Z,99458.50
2022-11-21T15:05:02.368Z,99456.50
2022-11-21T15:07:32.107Z,99451.75
2022-11-21T15:10:28.753Z,99446.47
2022-11-21T15:12:48.730Z,99441.81
2022-11-21T15:15:23.236Z,99435.91
2022-11-21T15:18:24.325Z,99426.63
2022-11-21T15:20:46.536Z,99426.16
2022-11-21T15:23:24.731Z,99418.41
2022-11-21T15:25:51.026Z,99419.56
2022-11-21T15:28:18.056Z,99410.97
2022-11-21T15:30:44.412Z,99409.66
2022-11-21T15:33:12.943Z,99412.97
2022-11-21T15:35:45.611Z,99400.56
2022-11-21T15:38:24.977Z,99394.16
2022-11-21T15:41:15.371Z,99387.06
2022-11-21T15:43:42.749Z,99380.97
2022-11-21T15:46:13.954Z,99372.53
2022-11-21T15:48:41.561Z,99364.78
2022-11-21T15:51:08.737Z,99365.78
2022-11-21T15:53:35.016Z,99368.59
2022-11-21T15:56:01.309Z,99361.31
2022-11-21T15:58:27.637Z,99353.22
2022-11-21T16:00:54.313Z,99368.78
2022-11-21T16:03:20.627Z,99353.72
2022-11-21T16:05:48.256Z,99353.72
2022-11-21T16:08:14.553Z,99344.19
2022-11-21T16:10:40.862Z,99348.44
2022-11-21T16:13:07.159Z,99348.13
2022-11-21T16:15:34.557Z,99346.28
2022-11-21T16:18:00.886Z,99324.16
2022-11-21T16:20:27.214Z,99321.41
2022-11-21T16:22:55.005Z,99316.41
2022-11-21T16:25:21.309Z,99327.69
2022-11-21T16:27:47.628Z,99323.22
2022-11-21T16:30:14.306Z,99304.56
2022-11-21T16:32:40.611Z,99301.28
2022-11-21T16:35:07.178Z,99304.72
2022-11-21T16:37:33.717Z,99317.78
2022-11-21T16:40:01.343Z,99313.66
2022-11-21T16:42:27.662Z,99318.94
2022-11-21T16:44:53.934Z,99303.91
2022-11-21T16:47:20.247Z,99302.25
2022-11-21T16:49:46.570Z,99289.88
2022-11-21T16:52:13.308Z,99270.09
2022-11-21T16:54:39.654Z,99268.25
2022-11-21T16:57:07.238Z,99267.00
2022-11-21T16:59:33.539Z,99262.22
2022-11-21T17:01:59.846Z,99273.75
2022-11-21T17:04:26.133Z,99259.91
2022-11-21T17:06:52.417Z,99252.69
2022-11-21T17:09:18.753Z,99243.28
2022-11-21T17:11:45.191Z,99242.13
2022-11-21T17:14:13.182Z,99237.84
2022-11-21T17:16:39.463Z,99234.22
2022-11-21T17:19:05.789Z,99233.59
2022-11-21T17:21:32.380Z,99232.59
2022-11-21T17:23:58.682Z,99226.66
2022-11-21T17:26:25.984Z,99224.19
2022-11-21T17:28:52.358Z,99217.38
2022-11-21T17:31:20.317Z,99211.81
2022-11-21T17:33:48.934Z,99198.78
2022-11-21T17:36:15.401Z,99199.78
2022-11-21T17:38:41.817Z,99197.97
2022-11-21T17:41:09.758Z,99189.06
2022-11-21T17:43:36.023Z,99187.91
2022-11-21T17:46:09.040Z,99195.00
2022-11-21T17:48:37.721Z,99194.00
2022-11-21T17:51:05.015Z,99188.06
2022-11-21T17:53:31.880Z,99195.66
2022-11-21T17:55:58.693Z,99201.56
2022-11-21T17:58:25.047Z,99204.38
2022-11-21T18:00:53.719Z,99206.22
2022-11-21T18:03:20.032Z,99206.00
2022-11-21T18:05:51.615Z,99209.66
2022-11-21T18:08:18.246Z,99213.09
2022-11-21T18:10:51.436Z,99201.56
2022-11-21T18:13:17.735Z,99182.75
2022-11-21T18:15:44.056Z,99177.47
2022-11-21T18:18:10.340Z,99163.91
2022-11-21T18:20:36.652Z,99161.03
2022-11-21T18:23:04.259Z,99150.78
2022-11-21T18:25:30.552Z,99146.34
2022-11-21T18:27:56.869Z,99147.81
2022-11-21T18:30:23.175Z,99150.94
2022-11-21T18:32:49.621Z,99144.84
2022-11-21T18:35:15.924Z,99149.28
2022-11-21T18:37:42.384Z,99144.19
2022-11-21T18:40:11.098Z,99141.53
2022-11-21T18:42:37.398Z,99139.41
2022-11-21T18:45:03.990Z,99136.09
2022-11-21T18:47:30.273Z,99129.66
2022-11-21T18:49:56.826Z,99122.34
2022-11-21T18:52:23.205Z,99116.09
2022-11-21T18:54:49.519Z,99106.53
2022-11-21T18:57:17.241Z,99108.41
2022-11-21T18:59:47.108Z,99100.97
2022-11-21T19:02:13.486Z,99093.03
2022-11-21T19:04:39.808Z,99091.69
2022-11-21T19:07:06.197Z,99086.94
2022-11-21T19:09:33.216Z,99085.78
2022-11-21T19:11:59.549Z,99077.53
2022-11-21T19:14:27.469Z,99072.41
2022-11-21T19:16:53.968Z,99065.94
2022-11-21T19:19:34.059Z,99069.94
2022-11-21T19:22:01.520Z,99069.78
2022-11-21T19:24:27.841Z,99063.66
2022-11-21T19:26:54.185Z,99060.88
2022-11-21T19:29:20.633Z,99065.34
2022-11-21T19:31:48.240Z,99063.19
2022-11-21T19:34:15.107Z,99070.63
2022-11-21T19:36:41.955Z,99068.63
2022-11-21T19:39:08.368Z,99062.38
2022-11-21T19:41:36.236Z,99057.91
2022-11-21T19:44:02.611Z,99047.53
2022-11-21T19:46:29.563Z,99036.88
2022-11-21T19:48:57.917Z,99037.69
2022-11-21T19:51:25.023Z,99034.66
2022-11-21T19:53:51.328Z,99025.00
2022-11-21T19:56:18.285Z,99024.84
2022-11-21T19:58:44.910Z,99021.38
2022-11-21T20:01:12.507Z,99013.44
2022-11-21T20:03:39.575Z,99009.34
2022-11-21T20:06:08.705Z,99000.59
2022-11-21T20:08:35.206Z,98989.06
2022-11-21T20:11:05.397Z,98975.34
2022-11-21T20:13:32.237Z,98978.84
2022-11-21T20:15:58.552Z,98979.50
2022-11-21T20:18:24.825Z,98966.66
2022-11-21T20:20:51.179Z,98960.09
2022-11-21T20:23:18.803Z,98958.38
2022-11-21T20:25:49.115Z,98953.44
2022-11-21T20:28:15.491Z,98953.94
2022-11-21T20:30:41.787Z,98956.75
2022-11-21T20:33:11.300Z,98961.31
2022-11-21T20:35:37.956Z,98953.75
2022-11-21T20:38:04.295Z,98950.38
2022-11-21T20:40:31.888Z,98945.09
2022-11-21T20:42:58.214Z,98950.03
2022-11-21T20:48:19.938Z,98949.13
2022-11-21T20:53:51.441Z,98941.72
2022-11-21T20:56:20.868Z,98951.47
2022-11-21T20:58:47.268Z,98950.75
2022-11-21T21:01:14.384Z,98944.84
2022-11-21T21:03:40.725Z,98939.75
2022-11-21T21:06:07.885Z,98942.69
2022-11-21T21:08:34.516Z,98938.75
2022-11-21T21:11:06.122Z,98933.47
2022-11-21T21:13:34.499Z,98933.16
2022-11-21T21:16:04.689Z,98926.38
2022-11-21T21:18:31.703Z,98929.00
2022-11-21T21:21:16.489Z,98925.72
2022-11-21T21:23:44.421Z,98928.72
2022-11-21T21:26:11.268Z,98926.06
2022-11-21T21:28:39.023Z,98931.56
2022-11-21T21:31:05.854Z,98935.47
2022-11-21T21:33:32.157Z,98939.75
2022-11-21T21:36:03.271Z,98934.81
2022-11-21T21:38:29.597Z,98930.19
2022-11-21T21:40:55.899Z,98933.16
2022-11-21T21:43:22.174Z,98931.56
2022-11-21T21:45:49.961Z,98933.81
2022-11-21T21:48:16.268Z,98935.09
2022-11-21T21:50:42.576Z,98940.72
2022-11-21T21:53:08.879Z,98932.63
2022-11-21T21:55:35.216Z,98934.81
2022-11-21T21:58:01.500Z,98929.91
2022-11-21T22:00:27.901Z,98930.34
2022-11-21T22:02:55.550Z,98927.53
2022-11-21T22:05:21.858Z,98930.34
2022-11-21T22:07:48.153Z,98924.72
2022-11-21T22:10:14.497Z,98917.97
2022-11-21T22:12:43.970Z,98935.63
2022-11-21T22:15:10.774Z,98932.34
2022-11-21T22:17:37.097Z,98928.25
2022-11-21T22:20:05.272Z,98926.28
2022-11-21T22:22:31.555Z,98914.53
2022-11-21T22:24:57.849Z,98920.78
2022-11-21T22:27:24.111Z,98910.25
2022-11-21T22:29:50.431Z,98917.34
2022-11-21T22:32:19.660Z,98905.16
2022-11-21T22:34:46.368Z,98909.41
2022-11-21T22:37:14.029Z,98899.88
2022-11-21T22:39:40.309Z,98895.41
2022-11-21T22:42:06.570Z,98905.78
2022-11-21T22:44:32.939Z,98904.34
2022-11-21T22:46:59.275Z,98907.16
2022-11-21T22:49:25.580Z,98903.53
2022-11-21T22:51:51.886Z,98906.97
2022-11-21T22:54:19.516Z,98899.06
2022-11-21T22:56:45.834Z,98897.44
2022-11-21T22:59:12.349Z,98893.59
2022-11-21T23:01:38.816Z,98892.75
2022-11-21T23:04:05.141Z,98888.13
2022-11-21T23:06:31.456Z,98885.66
2022-11-21T23:08:57.736Z,98888.50
2022-11-21T23:11:26.377Z,98888.13
2022-11-21T23:13:53.054Z,98886.97
2022-11-21T23:16:19.672Z,98887.59
2022-11-21T23:18:45.966Z,98888.59
2022-11-21T23:21:13.075Z,98896.53
2022-11-21T23:23:39.580Z,98898.34
2022-11-21T23:26:06.217Z,98892.88
2022-11-21T23:28:34.036Z,98891.72
2022-11-21T23:31:00.539Z,98888.69
2022-11-21T23:33:26.826Z,98882.59
2022-11-21T23:35:53.136Z,98874.50
2022-11-21T23:38:19.463Z,98878.97
2022-11-21T23:40:46.032Z,98873.69
2022-11-21T23:43:12.369Z,98879.94
2022-11-21T23:45:40.031Z,98885.22
2022-11-21T23:48:06.542Z,98896.78
2022-11-21T23:50:32.937Z,98894.44
2022-11-21T23:52:59.214Z,98886.53
2022-11-21T23:55:25.521Z,98896.91
2022-11-21T23:57:51.830Z,98894.09
